createdAt,value
2023-02-15T21:35:04.761Z,101825.91
2023-02-15T21:37:36.923Z,101824.40
2023-02-15T21:40:14.630Z,101821.23
2023-02-15T21:43:01.597Z,101818.10
2023-02-15T21:45:48.913Z,101818.19
2023-02-15T21:48:17.241Z,101809.78
2023-02-15T21:51:04.694Z,101812.19
2023-02-15T21:53:42.913Z,101819.13
2023-02-15T21:56:22.369Z,101816.43
2023-02-15T21:58:50.560Z,101813.19
2023-02-15T22:01:27.584Z,101810.48
2023-02-15T22:03:59.636Z,101810.67
2023-02-15T22:06:27.962Z,101812.14
2023-02-15T22:08:56.460Z,101812.55
2023-02-15T22:11:25.246Z,101808.59
2023-02-15T22:13:54.553Z,101798.58
2023-02-15T22:16:24.090Z,101799.13
2023-02-15T22:18:53.068Z,101808.70
2023-02-15T22:21:21.897Z,101807.52
2023-02-15T22:23:53.185Z,101804.73
2023-02-15T22:26:25.244Z,101802.48
2023-02-15T22:28:54.064Z,101801.11
2023-02-15T22:31:23.783Z,101797.68
2023-02-15T22:33:52.359Z,101798.86
2023-02-15T22:36:33.142Z,101792.46
2023-02-15T22:39:01.489Z,101789.64
2023-02-15T22:41:32.165Z,101786.35
2023-02-15T22:44:01.201Z,101784.83
2023-02-15T22:46:29.931Z,101786.00
2023-02-15T22:48:58.693Z,101786.25
2023-02-15T22:51:28.306Z,101787.34
2023-02-15T22:53:56.627Z,101783.14
2023-02-15T22:56:36.869Z,101780.02
2023-02-15T22:59:11.087Z,101778.14
2023-02-15T23:01:39.490Z,101776.08
2023-02-15T23:04:08.119Z,101774.00
2023-02-15T23:06:36.589Z,101771.77
2023-02-15T23:09:05.007Z,101777.02
2023-02-15T23:11:34.116Z,101770.09
2023-02-15T23:14:05.323Z,101773.38
2023-02-15T23:16:35.132Z,101779.80
2023-02-15T23:19:03.375Z,101774.56
2023-02-15T23:21:33.973Z,101768.30
2023-02-15T23:24:26.681Z,101765.66
2023-02-15T23:26:55.039Z,101767.46
2023-02-15T23:29:27.279Z,101764.02
2023-02-15T23:31:56.482Z,101759.13
2023-02-15T23:34:29.647Z,101755.83
2023-02-15T23:36:58.362Z,101758.71
2023-02-15T23:39:47.844Z,101755.05
2023-02-15T23:42:22.239Z,101750.60
2023-02-15T23:44:51.001Z,101753.71
2023-02-15T23:47:47.010Z,101747.46
2023-02-15T23:50:21.294Z,101748.72
2023-02-15T23:52:54.088Z,101740.23
2023-02-15T23:55:24.167Z,101741.06
2023-02-15T23:57:54.519Z,101736.55
